sensor_id;sensor_type;location;lat;lon;timestamp;P1;durP1;ratioP1;P2;durP2;ratioP2
16119;SDS011;12670;53.502;10.252;2022-12-18T00:00:58;25.67;;;10.33;;
16119;SDS011;12670;53.502;10.252;2022-12-18T00:04:01;20.80;;;10.33;;
16119;SDS011;12670;53.502;10.252;2022-12-18T00:07:05;20.03;;;9.50;;
16119;SDS011;12670;53.502;10.252;2022-12-18T00:10:08;17.77;;;9.33;;
16119;SDS011;12670;53.502;10.252;2022-12-18T00:13:15;20.90;;;10.17;;
16119;SDS011;12670;53.502;10.252;2022-12-18T00:16:20;18.03;;;9.03;;
16119;SDS011;12670;53.502;10.252;2022-12-18T00:19:24;18.70;;;8.97;;
16119;SDS011;12670;53.502;10.252;2022-12-18T00:22:27;20.83;;;8.93;;
16119;SDS011;12670;53.502;10.252;2022-12-18T00:25:29;19.57;;;9.13;;
16119;SDS011;12670;53.502;10.252;2022-12-18T00:28:34;18.93;;;8.57;;
16119;SDS011;12670;53.502;10.252;2022-12-18T00:31:39;17.43;;;8.60;;
16119;SDS011;12670;53.502;10.252;2022-12-18T00:34:42;20.43;;;9.47;;
16119;SDS011;12670;53.502;10.252;2022-12-18T00:37:44;20.33;;;9.10;;
16119;SDS011;12670;53.502;10.252;2022-12-18T00:40:47;20.53;;;8.77;;
16119;SDS011;12670;53.502;10.252;2022-12-18T00:43:50;21.60;;;9.00;;
16119;SDS011;12670;53.502;10.252;2022-12-18T00:46:53;20.13;;;9.23;;
16119;SDS011;12670;53.502;10.252;2022-12-18T00:49:55;18.10;;;9.27;;
16119;SDS011;12670;53.502;10.252;2022-12-18T00:52:58;19.23;;;9.17;;
16119;SDS011;12670;53.502;10.252;2022-12-18T00:56:00;17.63;;;8.47;;
16119;SDS011;12670;53.502;10.252;2022-12-18T00:59:03;19.07;;;8.77;;
16119;SDS011;12670;53.502;10.252;2022-12-18T01:02:08;21.77;;;9.97;;
16119;SDS011;12670;53.502;10.252;2022-12-18T01:05:11;19.30;;;10.03;;
16119;SDS011;12670;53.502;10.252;2022-12-18T01:08:14;21.00;;;9.03;;
16119;SDS011;12670;53.502;10.252;2022-12-18T01:11:17;19.57;;;9.23;;
16119;SDS011;12670;53.502;10.252;2022-12-18T01:14:22;17.03;;;9.40;;
16119;SDS011;12670;53.502;10.252;2022-12-18T01:17:26;15.50;;;8.07;;
16119;SDS011;12670;53.502;10.252;2022-12-18T01:20:28;18.77;;;8.63;;
16119;SDS011;12670;53.502;10.252;2022-12-18T01:23:31;21.70;;;8.30;;
16119;SDS011;12670;53.502;10.252;2022-12-18T01:26:33;16.77;;;8.33;;
16119;SDS011;12670;53.502;10.252;2022-12-18T01:29:36;20.40;;;8.43;;
16119;SDS011;12670;53.502;10.252;2022-12-18T01:32:40;16.13;;;8.43;;
16119;SDS011;12670;53.502;10.252;2022-12-18T01:35:43;15.47;;;8.53;;
16119;SDS011;12670;53.502;10.252;2022-12-18T01:38:46;18.33;;;8.90;;
16119;SDS011;12670;53.502;10.252;2022-12-18T01:41:49;18.33;;;8.60;;
16119;SDS011;12670;53.502;10.252;2022-12-18T01:45:05;15.70;;;7.90;;
16119;SDS011;12670;53.502;10.252;2022-12-18T01:48:24;19.17;;;8.43;;
16119;SDS011;12670;53.502;10.252;2022-12-18T01:51:27;13.93;;;7.17;;
16119;SDS011;12670;53.502;10.252;2022-12-18T01:54:32;17.37;;;8.07;;
16119;SDS011;12670;53.502;10.252;2022-12-18T01:57:35;15.10;;;7.60;;
16119;SDS011;12670;53.502;10.252;2022-12-18T02:00:39;17.20;;;8.23;;
16119;SDS011;12670;53.502;10.252;2022-12-18T02:03:43;13.87;;;7.77;;
16119;SDS011;12670;53.502;10.252;2022-12-18T02:06:47;19.00;;;7.63;;
16119;SDS011;12670;53.502;10.252;2022-12-18T02:09:54;15.13;;;7.50;;
16119;SDS011;12670;53.502;10.252;2022-12-18T02:13:02;16.83;;;8.20;;
16119;SDS011;12670;53.502;10.252;2022-12-18T02:16:17;20.83;;;8.43;;
16119;SDS011;12670;53.502;10.252;2022-12-18T02:19:32;15.97;;;7.83;;
16119;SDS011;12670;53.502;10.252;2022-12-18T02:23:00;16.07;;;7.77;;
16119;SDS011;12670;53.502;10.252;2022-12-18T02:26:13;20.33;;;8.57;;
16119;SDS011;12670;53.502;10.252;2022-12-18T02:29:20;14.77;;;7.90;;
16119;SDS011;12670;53.502;10.252;2022-12-18T02:32:30;17.97;;;8.20;;
16119;SDS011;12670;53.502;10.252;2022-12-18T02:35:37;19.50;;;8.47;;
16119;SDS011;12670;53.502;10.252;2022-12-18T02:38:43;16.73;;;8.63;;
16119;SDS011;12670;53.502;10.252;2022-12-18T02:41:49;19.53;;;8.27;;
16119;SDS011;12670;53.502;10.252;2022-12-18T02:44:53;19.57;;;7.97;;
16119;SDS011;12670;53.502;10.252;2022-12-18T02:47:56;14.77;;;7.83;;
16119;SDS011;12670;53.502;10.252;2022-12-18T02:50:59;17.30;;;7.63;;
16119;SDS011;12670;53.502;10.252;2022-12-18T02:54:08;16.03;;;8.03;;
16119;SDS011;12670;53.502;10.252;2022-12-18T02:57:22;16.97;;;7.77;;
16119;SDS011;12670;53.502;10.252;2022-12-18T03:00:33;16.57;;;8.07;;
16119;SDS011;12670;53.502;10.252;2022-12-18T03:03:40;18.27;;;7.80;;
16119;SDS011;12670;53.502;10.252;2022-12-18T03:06:48;16.20;;;8.03;;
16119;SDS011;12670;53.502;10.252;2022-12-18T03:09:54;20.20;;;8.23;;
16119;SDS011;12670;53.502;10.252;2022-12-18T03:13:01;20.00;;;8.23;;
16119;SDS011;12670;53.502;10.252;2022-12-18T03:16:07;23.33;;;8.37;;
16119;SDS011;12670;53.502;10.252;2022-12-18T03:19:13;14.87;;;8.37;;
16119;SDS011;12670;53.502;10.252;2022-12-18T03:22:19;16.67;;;8.33;;
16119;SDS011;12670;53.502;10.252;2022-12-18T03:25:23;15.77;;;7.77;;
16119;SDS011;12670;53.502;10.252;2022-12-18T03:28:30;19.43;;;8.57;;
16119;SDS011;12670;53.502;10.252;2022-12-18T03:31:37;14.77;;;7.93;;
16119;SDS011;12670;53.502;10.252;2022-12-18T03:34:43;14.33;;;8.13;;
16119;SDS011;12670;53.502;10.252;2022-12-18T03:37:50;18.13;;;8.23;;
16119;SDS011;12670;53.502;10.252;2022-12-18T03:40:53;14.70;;;7.60;;
16119;SDS011;12670;53.502;10.252;2022-12-18T03:44:03;19.30;;;8.13;;
16119;SDS011;12670;53.502;10.252;2022-12-18T03:47:14;22.00;;;8.23;;
16119;SDS011;12670;53.502;10.252;2022-12-18T03:50:22;20.67;;;8.00;;
16119;SDS011;12670;53.502;10.252;2022-12-18T03:53:33;18.63;;;8.30;;
16119;SDS011;12670;53.502;10.252;2022-12-18T03:56:42;16.87;;;8.10;;
16119;SDS011;12670;53.502;10.252;2022-12-18T03:59:49;17.93;;;8.47;;
16119;SDS011;12670;53.502;10.252;2022-12-18T04:02:55;16.17;;;8.50;;
16119;SDS011;12670;53.502;10.252;2022-12-18T04:05:59;15.13;;;7.97;;
16119;SDS011;12670;53.502;10.252;2022-12-18T04:09:05;18.97;;;8.13;;
16119;SDS011;12670;53.502;10.252;2022-12-18T04:12:08;17.13;;;8.10;;
16119;SDS011;12670;53.502;10.252;2022-12-18T04:15:13;17.80;;;8.30;;
16119;SDS011;12670;53.502;10.252;2022-12-18T04:18:16;19.03;;;9.30;;
16119;SDS011;12670;53.502;10.252;2022-12-18T04:21:18;16.63;;;9.00;;
16119;SDS011;12670;53.502;10.252;2022-12-18T04:24:21;16.00;;;8.40;;
16119;SDS011;12670;53.502;10.252;2022-12-18T04:27:24;15.33;;;8.50;;
16119;SDS011;12670;53.502;10.252;2022-12-18T04:30:28;16.47;;;9.20;;
16119;SDS011;12670;53.502;10.252;2022-12-18T04:33:31;16.93;;;9.30;;
16119;SDS011;12670;53.502;10.252;2022-12-18T04:36:33;21.20;;;9.47;;
16119;SDS011;12670;53.502;10.252;2022-12-18T04:39:36;18.60;;;9.77;;
16119;SDS011;12670;53.502;10.252;2022-12-18T04:42:38;19.80;;;9.50;;
16119;SDS011;12670;53.502;10.252;2022-12-18T04:45:43;23.20;;;10.00;;
16119;SDS011;12670;53.502;10.252;2022-12-18T04:48:45;22.60;;;9.40;;
16119;SDS011;12670;53.502;10.252;2022-12-18T04:51:48;23.77;;;9.97;;
16119;SDS011;12670;53.502;10.252;2022-12-18T04:54:51;17.30;;;9.27;;
16119;SDS011;12670;53.502;10.252;2022-12-18T04:57:54;28.57;;;9.77;;
16119;SDS011;12670;53.502;10.252;2022-12-18T05:00:58;17.30;;;9.13;;
16119;SDS011;12670;53.502;10.252;2022-12-18T05:04:00;19.43;;;9.57;;
16119;SDS011;12670;53.502;10.252;2022-12-18T05:07:03;20.50;;;9.97;;
16119;SDS011;12670;53.502;10.252;2022-12-18T05:10:06;21.73;;;9.20;;
16119;SDS011;12670;53.502;10.252;2022-12-18T05:13:10;18.33;;;9.50;;
16119;SDS011;12670;53.502;10.252;2022-12-18T05:16:14;24.37;;;10.57;;
16119;SDS011;12670;53.502;10.252;2022-12-18T05:19:17;18.87;;;9.20;;
16119;SDS011;12670;53.502;10.252;2022-12-18T05:22:20;21.73;;;9.80;;
16119;SDS011;12670;53.502;10.252;2022-12-18T05:25:22;22.80;;;9.77;;
16119;SDS011;12670;53.502;10.252;2022-12-18T05:28:26;21.07;;;10.30;;
16119;SDS011;12670;53.502;10.252;2022-12-18T05:31:31;22.07;;;10.53;;
16119;SDS011;12670;53.502;10.252;2022-12-18T05:34:40;27.07;;;9.93;;
16119;SDS011;12670;53.502;10.252;2022-12-18T05:37:42;19.90;;;9.90;;
16119;SDS011;12670;53.502;10.252;2022-12-18T05:40:45;23.83;;;10.20;;
16119;SDS011;12670;53.502;10.252;2022-12-18T05:43:47;19.87;;;10.43;;
16119;SDS011;12670;53.502;10.252;2022-12-18T05:46:51;21.43;;;9.87;;
16119;SDS011;12670;53.502;10.252;2022-12-18T05:49:54;19.40;;;9.63;;
16119;SDS011;12670;53.502;10.252;2022-12-18T05:52:57;21.63;;;10.27;;
16119;SDS011;12670;53.502;10.252;2022-12-18T05:56:00;22.00;;;10.83;;
16119;SDS011;12670;53.502;10.252;2022-12-18T05:59:03;20.97;;;8.97;;
16119;SDS011;12670;53.502;10.252;2022-12-18T06:02:07;20.73;;;10.20;;
16119;SDS011;12670;53.502;10.252;2022-12-18T06:05:10;22.17;;;10.13;;
16119;SDS011;12670;53.502;10.252;2022-12-18T06:08:13;20.77;;;10.43;;
16119;SDS011;12670;53.502;10.252;2022-12-18T06:11:17;22.80;;;10.50;;
16119;SDS011;12670;53.502;10.252;2022-12-18T06:14:20;19.23;;;9.97;;
16119;SDS011;12670;53.502;10.252;2022-12-18T06:17:24;23.03;;;10.40;;
16119;SDS011;12670;53.502;10.252;2022-12-18T06:20:30;20.90;;;9.90;;
16119;SDS011;12670;53.502;10.252;2022-12-18T06:23:34;21.73;;;10.23;;
16119;SDS011;12670;53.502;10.252;2022-12-18T06:26:37;21.60;;;10.47;;
16119;SDS011;12670;53.502;10.252;2022-12-18T06:29:41;23.87;;;10.40;;
16119;SDS011;12670;53.502;10.252;2022-12-18T06:32:44;20.60;;;11.13;;
16119;SDS011;12670;53.502;10.252;2022-12-18T06:35:53;22.60;;;10.77;;
16119;SDS011;12670;53.502;10.252;2022-12-18T06:39:01;25.53;;;11.73;;
16119;SDS011;12670;53.502;10.252;2022-12-18T06:42:04;24.10;;;10.77;;
16119;SDS011;12670;53.502;10.252;2022-12-18T06:45:07;22.33;;;11.63;;
16119;SDS011;12670;53.502;10.252;2022-12-18T06:48:12;27.70;;;11.67;;
16119;SDS011;12670;53.502;10.252;2022-12-18T06:51:15;26.27;;;11.93;;
16119;SDS011;12670;53.502;10.252;2022-12-18T06:54:19;27.83;;;11.87;;
16119;SDS011;12670;53.502;10.252;2022-12-18T06:57:22;29.13;;;11.70;;
16119;SDS011;12670;53.502;10.252;2022-12-18T07:00:25;24.87;;;11.87;;
16119;SDS011;12670;53.502;10.252;2022-12-18T07:03:29;26.30;;;11.60;;
16119;SDS011;12670;53.502;10.252;2022-12-18T07:06:32;30.33;;;12.33;;
16119;SDS011;12670;53.502;10.252;2022-12-18T07:09:34;29.33;;;11.60;;
16119;SDS011;12670;53.502;10.252;2022-12-18T07:12:37;22.37;;;10.77;;
16119;SDS011;12670;53.502;10.252;2022-12-18T07:15:39;25.33;;;11.37;;
16119;SDS011;12670;53.502;10.252;2022-12-18T07:18:44;26.43;;;11.13;;
16119;SDS011;12670;53.502;10.252;2022-12-18T07:21:47;27.83;;;12.33;;
16119;SDS011;12670;53.502;10.252;2022-12-18T07:24:49;24.30;;;11.53;;
16119;SDS011;12670;53.502;10.252;2022-12-18T07:27:52;23.63;;;11.93;;
16119;SDS011;12670;53.502;10.252;2022-12-18T07:30:55;25.07;;;11.67;;
16119;SDS011;12670;53.502;10.252;2022-12-18T07:33:59;27.20;;;11.90;;
16119;SDS011;12670;53.502;10.252;2022-12-18T07:37:01;29.97;;;12.57;;
16119;SDS011;12670;53.502;10.252;2022-12-18T07:40:04;27.17;;;12.30;;
16119;SDS011;12670;53.502;10.252;2022-12-18T07:43:08;22.97;;;11.93;;
16119;SDS011;12670;53.502;10.252;2022-12-18T07:46:12;25.40;;;11.80;;
16119;SDS011;12670;53.502;10.252;2022-12-18T07:49:18;26.57;;;12.60;;
16119;SDS011;12670;53.502;10.252;2022-12-18T07:52:20;27.83;;;11.90;;
16119;SDS011;12670;53.502;10.252;2022-12-18T07:55:26;21.47;;;11.43;;
16119;SDS011;12670;53.502;10.252;2022-12-18T07:58:42;26.47;;;12.10;;
16119;SDS011;12670;53.502;10.252;2022-12-18T08:01:45;28.97;;;12.50;;
16119;SDS011;12670;53.502;10.252;2022-12-18T08:04:49;25.90;;;11.57;;
16119;SDS011;12670;53.502;10.252;2022-12-18T08:07:52;22.80;;;11.10;;
16119;SDS011;12670;53.502;10.252;2022-12-18T08:10:55;27.27;;;12.53;;
16119;SDS011;12670;53.502;10.252;2022-12-18T08:13:59;21.83;;;10.63;;
16119;SDS011;12670;53.502;10.252;2022-12-18T08:17:01;23.73;;;11.87;;
16119;SDS011;12670;53.502;10.252;2022-12-18T08:20:06;25.50;;;11.53;;
16119;SDS011;12670;53.502;10.252;2022-12-18T08:23:09;25.70;;;12.03;;
16119;SDS011;12670;53.502;10.252;2022-12-18T08:26:12;24.93;;;12.23;;
16119;SDS011;12670;53.502;10.252;2022-12-18T08:29:15;26.97;;;12.03;;
16119;SDS011;12670;53.502;10.252;2022-12-18T08:32:22;25.47;;;12.27;;
16119;SDS011;12670;53.502;10.252;2022-12-18T08:35:26;24.97;;;11.97;;
16119;SDS011;12670;53.502;10.252;2022-12-18T08:38:36;26.67;;;12.23;;
16119;SDS011;12670;53.502;10.252;2022-12-18T08:41:39;25.03;;;12.50;;
16119;SDS011;12670;53.502;10.252;2022-12-18T08:44:42;25.13;;;11.90;;
16119;SDS011;12670;53.502;10.252;2022-12-18T08:47:43;23.23;;;11.40;;
16119;SDS011;12670;53.502;10.252;2022-12-18T08:50:54;27.80;;;11.90;;
16119;SDS011;12670;53.502;10.252;2022-12-18T08:53:57;28.73;;;11.67;;
16119;SDS011;12670;53.502;10.252;2022-12-18T08:57:00;26.70;;;12.60;;
16119;SDS011;12670;53.502;10.252;2022-12-18T09:00:03;26.33;;;12.10;;
16119;SDS011;12670;53.502;10.252;2022-12-18T09:03:09;26.23;;;12.93;;
16119;SDS011;12670;53.502;10.252;2022-12-18T09:06:15;24.27;;;11.70;;
16119;SDS011;12670;53.502;10.252;2022-12-18T09:09:19;24.10;;;11.37;;
16119;SDS011;12670;53.502;10.252;2022-12-18T09:12:21;27.10;;;12.07;;
16119;SDS011;12670;53.502;10.252;2022-12-18T09:15:24;29.97;;;13.33;;
16119;SDS011;12670;53.502;10.252;2022-12-18T09:18:27;26.93;;;13.10;;
16119;SDS011;12670;53.502;10.252;2022-12-18T09:21:32;22.43;;;11.13;;
16119;SDS011;12670;53.502;10.252;2022-12-18T09:24:37;27.00;;;11.67;;
16119;SDS011;12670;53.502;10.252;2022-12-18T09:27:40;22.77;;;11.07;;
16119;SDS011;12670;53.502;10.252;2022-12-18T09:30:43;22.43;;;11.67;;
16119;SDS011;12670;53.502;10.252;2022-12-18T09:33:47;26.07;;;12.27;;
16119;SDS011;12670;53.502;10.252;2022-12-18T09:36:51;25.10;;;11.20;;
16119;SDS011;12670;53.502;10.252;2022-12-18T09:39:54;24.98;;;13.93;;
16119;SDS011;12670;53.502;10.252;2022-12-18T09:42:58;24.13;;;12.27;;
16119;SDS011;12670;53.502;10.252;2022-12-18T09:46:08;25.97;;;12.70;;
16119;SDS011;12670;53.502;10.252;2022-12-18T09:49:18;27.27;;;12.77;;
16119;SDS011;12670;53.502;10.252;2022-12-18T09:52:26;25.57;;;11.83;;
16119;SDS011;12670;53.502;10.252;2022-12-18T09:55:35;23.50;;;12.00;;
16119;SDS011;12670;53.502;10.252;2022-12-18T09:58:41;27.17;;;12.70;;
16119;SDS011;12670;53.502;10.252;2022-12-18T10:01:49;27.73;;;13.23;;
16119;SDS011;12670;53.502;10.252;2022-12-18T10:04:55;27.50;;;12.70;;
16119;SDS011;12670;53.502;10.252;2022-12-18T10:08:09;25.87;;;11.97;;
16119;SDS011;12670;53.502;10.252;2022-12-18T10:11:21;25.60;;;12.07;;
16119;SDS011;12670;53.502;10.252;2022-12-18T10:14:33;26.43;;;12.83;;
16119;SDS011;12670;53.502;10.252;2022-12-18T10:17:44;29.90;;;12.90;;
16119;SDS011;12670;53.502;10.252;2022-12-18T10:20:52;24.73;;;12.23;;
16119;SDS011;12670;53.502;10.252;2022-12-18T10:24:03;25.73;;;13.57;;
16119;SDS011;12670;53.502;10.252;2022-12-18T10:27:17;31.00;;;13.00;;
16119;SDS011;12670;53.502;10.252;2022-12-18T10:30:25;30.20;;;12.73;;
16119;SDS011;12670;53.502;10.252;2022-12-18T10:33:29;24.87;;;12.80;;
16119;SDS011;12670;53.502;10.252;2022-12-18T10:36:33;26.30;;;12.67;;
16119;SDS011;12670;53.502;10.252;2022-12-18T10:39:37;25.57;;;12.03;;
16119;SDS011;12670;53.502;10.252;2022-12-18T10:42:40;29.17;;;12.93;;
16119;SDS011;12670;53.502;10.252;2022-12-18T10:45:55;28.87;;;13.70;;
16119;SDS011;12670;53.502;10.252;2022-12-18T10:49:02;32.43;;;14.53;;
16119;SDS011;12670;53.502;10.252;2022-12-18T10:52:05;33.50;;;15.33;;
16119;SDS011;12670;53.502;10.252;2022-12-18T10:55:16;28.67;;;14.50;;
16119;SDS011;12670;53.502;10.252;2022-12-18T10:58:24;26.67;;;13.13;;
16119;SDS011;12670;53.502;10.252;2022-12-18T11:01:28;28.67;;;14.30;;
16119;SDS011;12670;53.502;10.252;2022-12-18T11:04:49;27.20;;;13.33;;
16119;SDS011;12670;53.502;10.252;2022-12-18T11:07:52;31.73;;;13.83;;
16119;SDS011;12670;53.502;10.252;2022-12-18T11:10:57;28.43;;;13.40;;
16119;SDS011;12670;53.502;10.252;2022-12-18T11:14:01;33.67;;;14.33;;
16119;SDS011;12670;53.502;10.252;2022-12-18T11:17:16;27.63;;;13.50;;
16119;SDS011;12670;53.502;10.252;2022-12-18T11:20:29;25.83;;;12.70;;
16119;SDS011;12670;53.502;10.252;2022-12-18T11:23:34;28.97;;;13.27;;
16119;SDS011;12670;53.502;10.252;2022-12-18T11:26:40;28.77;;;13.17;;
16119;SDS011;12670;53.502;10.252;2022-12-18T11:29:44;26.63;;;12.70;;
16119;SDS011;12670;53.502;10.252;2022-12-18T11:32:47;27.23;;;13.43;;
16119;SDS011;12670;53.502;10.252;2022-12-18T11:35:52;28.73;;;13.57;;
16119;SDS011;12670;53.502;10.252;2022-12-18T11:38:57;28.70;;;13.53;;
16119;SDS011;12670;53.502;10.252;2022-12-18T11:42:08;28.13;;;12.77;;
16119;SDS011;12670;53.502;10.252;2022-12-18T11:45:21;31.10;;;13.70;;
16119;SDS011;12670;53.502;10.252;2022-12-18T11:48:30;29.53;;;13.57;;
16119;SDS011;12670;53.502;10.252;2022-12-18T11:51:41;27.20;;;13.33;;
16119;SDS011;12670;53.502;10.252;2022-12-18T11:54:51;30.80;;;13.17;;
16119;SDS011;12670;53.502;10.252;2022-12-18T11:57:57;35.63;;;13.67;;
16119;SDS011;12670;53.502;10.252;2022-12-18T12:01:10;27.70;;;12.10;;
16119;SDS011;12670;53.502;10.252;2022-12-18T12:04:30;29.80;;;12.63;;
16119;SDS011;12670;53.502;10.252;2022-12-18T12:07:44;30.30;;;13.33;;
16119;SDS011;12670;53.502;10.252;2022-12-18T12:10:56;27.00;;;12.17;;
16119;SDS011;12670;53.502;10.252;2022-12-18T12:17:49;29.80;;;12.67;;
16119;SDS011;12670;53.502;10.252;2022-12-18T12:20:58;26.07;;;11.60;;
16119;SDS011;12670;53.502;10.252;2022-12-18T12:24:11;27.73;;;11.87;;
16119;SDS011;12670;53.502;10.252;2022-12-18T12:27:29;29.70;;;13.30;;
16119;SDS011;12670;53.502;10.252;2022-12-18T12:30:47;26.00;;;12.20;;
16119;SDS011;12670;53.502;10.252;2022-12-18T12:34:01;28.40;;;12.43;;
16119;SDS011;12670;53.502;10.252;2022-12-18T12:37:19;29.40;;;13.17;;
16119;SDS011;12670;53.502;10.252;2022-12-18T12:40:28;28.10;;;12.97;;
16119;SDS011;12670;53.502;10.252;2022-12-18T12:43:53;29.13;;;12.53;;
16119;SDS011;12670;53.502;10.252;2022-12-18T12:47:04;27.93;;;12.63;;
16119;SDS011;12670;53.502;10.252;2022-12-18T12:50:17;28.07;;;12.07;;
16119;SDS011;12670;53.502;10.252;2022-12-18T12:53:24;30.87;;;12.30;;
16119;SDS011;12670;53.502;10.252;2022-12-18T12:56:34;29.10;;;11.87;;
16119;SDS011;12670;53.502;10.252;2022-12-18T12:59:45;48.40;;;13.87;;
16119;SDS011;12670;53.502;10.252;2022-12-18T13:02:56;26.43;;;11.87;;
16119;SDS011;12670;53.502;10.252;2022-12-18T13:06:08;26.70;;;11.37;;
16119;SDS011;12670;53.502;10.252;2022-12-18T13:09:19;24.10;;;11.23;;
16119;SDS011;12670;53.502;10.252;2022-12-18T13:12:22;24.63;;;11.63;;
16119;SDS011;12670;53.502;10.252;2022-12-18T13:15:43;26.83;;;12.07;;
16119;SDS011;12670;53.502;10.252;2022-12-18T13:18:52;24.27;;;11.47;;
16119;SDS011;12670;53.502;10.252;2022-12-18T13:21:58;26.43;;;11.83;;
16119;SDS011;12670;53.502;10.252;2022-12-18T13:25:00;24.07;;;11.17;;
16119;SDS011;12670;53.502;10.252;2022-12-18T13:28:05;24.43;;;10.53;;
16119;SDS011;12670;53.502;10.252;2022-12-18T13:31:10;30.37;;;11.97;;
16119;SDS011;12670;53.502;10.252;2022-12-18T13:34:16;31.13;;;12.10;;
16119;SDS011;12670;53.502;10.252;2022-12-18T13:40:55;30.63;;;12.93;;
16119;SDS011;12670;53.502;10.252;2022-12-18T13:44:10;26.63;;;11.63;;
16119;SDS011;12670;53.502;10.252;2022-12-18T13:47:24;27.10;;;12.23;;
16119;SDS011;12670;53.502;10.252;2022-12-18T13:50:30;31.50;;;12.30;;
16119;SDS011;12670;53.502;10.252;2022-12-18T13:53:37;31.53;;;13.30;;
16119;SDS011;12670;53.502;10.252;2022-12-18T13:56:45;33.40;;;13.13;;
16119;SDS011;12670;53.502;10.252;2022-12-18T13:59:51;31.60;;;13.20;;
16119;SDS011;12670;53.502;10.252;2022-12-18T14:02:54;29.07;;;13.13;;
16119;SDS011;12670;53.502;10.252;2022-12-18T14:06:03;35.27;;;13.60;;
16119;SDS011;12670;53.502;10.252;2022-12-18T14:09:10;34.93;;;14.20;;
16119;SDS011;12670;53.502;10.252;2022-12-18T14:12:22;32.00;;;13.57;;
16119;SDS011;12670;53.502;10.252;2022-12-18T14:15:45;33.77;;;13.80;;
16119;SDS011;12670;53.502;10.252;2022-12-18T14:18:52;34.67;;;14.07;;
16119;SDS011;12670;53.502;10.252;2022-12-18T14:22:09;35.43;;;13.43;;
16119;SDS011;12670;53.502;10.252;2022-12-18T14:25:17;34.03;;;15.85;;
16119;SDS011;12670;53.502;10.252;2022-12-18T14:28:21;37.83;;;14.63;;
16119;SDS011;12670;53.502;10.252;2022-12-18T14:31:25;34.90;;;13.93;;
16119;SDS011;12670;53.502;10.252;2022-12-18T14:34:29;35.53;;;14.20;;
16119;SDS011;12670;53.502;10.252;2022-12-18T14:37:33;36.10;;;14.87;;
16119;SDS011;12670;53.502;10.252;2022-12-18T14:40:35;35.57;;;13.70;;
16119;SDS011;12670;53.502;10.252;2022-12-18T14:43:39;38.23;;;14.60;;
16119;SDS011;12670;53.502;10.252;2022-12-18T14:46:44;39.37;;;14.20;;
16119;SDS011;12670;53.502;10.252;2022-12-18T14:49:48;34.97;;;14.47;;
16119;SDS011;12670;53.502;10.252;2022-12-18T14:52:52;39.93;;;15.60;;
16119;SDS011;12670;53.502;10.252;2022-12-18T14:55:55;35.87;;;14.80;;
16119;SDS011;12670;53.502;10.252;2022-12-18T14:58:58;36.77;;;14.90;;
16119;SDS011;12670;53.502;10.252;2022-12-18T15:02:03;36.10;;;13.87;;
16119;SDS011;12670;53.502;10.252;2022-12-18T15:05:17;33.00;;;14.30;;
16119;SDS011;12670;53.502;10.252;2022-12-18T15:08:34;35.70;;;14.63;;
16119;SDS011;12670;53.502;10.252;2022-12-18T15:11:45;40.37;;;15.17;;
16119;SDS011;12670;53.502;10.252;2022-12-18T15:14:48;33.73;;;14.43;;
16119;SDS011;12670;53.502;10.252;2022-12-18T15:17:56;39.93;;;15.73;;
16119;SDS011;12670;53.502;10.252;2022-12-18T15:21:00;49.30;;;17.03;;
16119;SDS011;12670;53.502;10.252;2022-12-18T15:24:16;43.03;;;16.57;;
16119;SDS011;12670;53.502;10.252;2022-12-18T15:27:23;47.43;;;17.97;;
16119;SDS011;12670;53.502;10.252;2022-12-18T15:30:27;40.53;;;16.93;;
16119;SDS011;12670;53.502;10.252;2022-12-18T15:33:31;40.90;;;16.07;;
16119;SDS011;12670;53.502;10.252;2022-12-18T15:36:35;46.40;;;17.20;;
16119;SDS011;12670;53.502;10.252;2022-12-18T15:39:40;46.67;;;17.67;;
16119;SDS011;12670;53.502;10.252;2022-12-18T15:42:43;47.27;;;16.80;;
16119;SDS011;12670;53.502;10.252;2022-12-18T15:46:04;47.53;;;17.03;;
16119;SDS011;12670;53.502;10.252;2022-12-18T15:49:08;42.80;;;16.27;;
16119;SDS011;12670;53.502;10.252;2022-12-18T15:52:11;43.27;;;16.03;;
16119;SDS011;12670;53.502;10.252;2022-12-18T15:55:28;42.20;;;16.23;;
16119;SDS011;12670;53.502;10.252;2022-12-18T15:58:48;43.60;;;16.53;;
16119;SDS011;12670;53.502;10.252;2022-12-18T16:01:51;42.20;;;16.10;;
16119;SDS011;12670;53.502;10.252;2022-12-18T16:04:56;45.97;;;17.27;;
16119;SDS011;12670;53.502;10.252;2022-12-18T16:07:59;45.33;;;16.13;;
16119;SDS011;12670;53.502;10.252;2022-12-18T16:11:03;43.93;;;16.17;;
16119;SDS011;12670;53.502;10.252;2022-12-18T16:14:07;50.00;;;17.33;;
16119;SDS011;12670;53.502;10.252;2022-12-18T16:17:18;37.53;;;15.03;;
16119;SDS011;12670;53.502;10.252;2022-12-18T16:20:21;38.67;;;15.63;;
16119;SDS011;12670;53.502;10.252;2022-12-18T16:23:24;38.03;;;15.87;;
16119;SDS011;12670;53.502;10.252;2022-12-18T16:26:29;39.60;;;15.70;;
16119;SDS011;12670;53.502;10.252;2022-12-18T16:29:33;40.27;;;15.73;;
16119;SDS011;12670;53.502;10.252;2022-12-18T16:32:36;39.67;;;15.60;;
16119;SDS011;12670;53.502;10.252;2022-12-18T16:35:38;46.73;;;17.10;;
16119;SDS011;12670;53.502;10.252;2022-12-18T16:38:42;43.57;;;16.00;;
16119;SDS011;12670;53.502;10.252;2022-12-18T16:41:46;39.80;;;16.00;;
16119;SDS011;12670;53.502;10.252;2022-12-18T16:44:49;34.00;;;14.67;;
16119;SDS011;12670;53.502;10.252;2022-12-18T16:47:52;37.83;;;15.07;;
16119;SDS011;12670;53.502;10.252;2022-12-18T16:50:56;44.23;;;16.10;;
16119;SDS011;12670;53.502;10.252;2022-12-18T16:54:02;32.67;;;14.63;;
16119;SDS011;12670;53.502;10.252;2022-12-18T16:57:13;31.83;;;13.90;;
16119;SDS011;12670;53.502;10.252;2022-12-18T17:00:17;31.13;;;14.37;;
16119;SDS011;12670;53.502;10.252;2022-12-18T17:03:20;38.20;;;15.03;;
16119;SDS011;12670;53.502;10.252;2022-12-18T17:06:23;33.47;;;13.67;;
16119;SDS011;12670;53.502;10.252;2022-12-18T17:09:27;30.87;;;13.80;;
16119;SDS011;12670;53.502;10.252;2022-12-18T17:12:31;50.23;;;14.53;;
16119;SDS011;12670;53.502;10.252;2022-12-18T17:15:34;28.93;;;12.40;;
16119;SDS011;12670;53.502;10.252;2022-12-18T17:18:37;26.87;;;12.83;;
16119;SDS011;12670;53.502;10.252;2022-12-18T17:21:39;36.57;;;14.60;;
16119;SDS011;12670;53.502;10.252;2022-12-18T17:24:42;30.47;;;12.47;;
16119;SDS011;12670;53.502;10.252;2022-12-18T17:27:46;26.50;;;11.40;;
16119;SDS011;12670;53.502;10.252;2022-12-18T17:30:49;29.33;;;11.83;;
16119;SDS011;12670;53.502;10.252;2022-12-18T17:33:51;27.03;;;11.60;;
16119;SDS011;12670;53.502;10.252;2022-12-18T17:36:55;26.50;;;11.70;;
16119;SDS011;12670;53.502;10.252;2022-12-18T17:39:57;26.43;;;11.57;;
16119;SDS011;12670;53.502;10.252;2022-12-18T17:43:01;27.67;;;11.47;;
16119;SDS011;12670;53.502;10.252;2022-12-18T17:46:04;30.90;;;12.40;;
16119;SDS011;12670;53.502;10.252;2022-12-18T17:49:09;26.43;;;11.23;;
16119;SDS011;12670;53.502;10.252;2022-12-18T17:52:12;20.43;;;9.83;;
16119;SDS011;12670;53.502;10.252;2022-12-18T17:55:15;23.30;;;10.30;;
16119;SDS011;12670;53.502;10.252;2022-12-18T17:58:19;23.40;;;11.17;;
16119;SDS011;12670;53.502;10.252;2022-12-18T18:01:22;23.70;;;11.17;;
16119;SDS011;12670;53.502;10.252;2022-12-18T18:04:26;22.53;;;10.97;;